Time;durP1;ratioP1;P1;durP2;ratioP2;P2;SDS_P1;SDS_P2;PMS_P1;PMS_P2;Temp;Humidity;BMP_temperature;BMP_pressure;BME280_temperature;BME280_humidity;BME280_pressure;Samples;Min_cycle;Max_cycle;Signal;HPM_P1;HPM_P2
2022/10/28 00:00:49;;;;;;;79.20;70.50;;;;;;;6.67;100.00;100119.16;106353;1279;59058;-77
2022/10/28 00:03:36;;;;;;;84.00;71.20;;;;;;;6.63;100.00;100118.23;106338;1269;65711;-77
2022/10/28 00:06:07;;;;;;;103.50;81.80;;;;;;;6.58;100.00;100119.63;106067;1288;68705;-77
2022/10/28 00:08:35;;;;;;;87.70;73.00;;;;;;;6.55;100.00;100116.72;106007;1290;63729;-77
2022/10/28 00:11:27;;;;;;;95.30;76.50;;;;;;;6.51;100.00;100114.38;106270;1286;58912;-77
2022/10/28 00:13:55;;;;;;;93.60;74.20;;;;;;;6.47;100.00;100113.98;106281;1285;58907;-77
2022/10/28 00:16:25;;;;;;;100.90;79.70;;;;;;;6.43;100.00;100107.94;106284;1285;67088;-77
2022/10/28 00:18:53;;;;;;;101.90;75.30;;;;;;;6.39;100.00;100102.95;106299;1278;60014;-77
2022/10/28 00:21:23;;;;;;;89.10;70.70;;;;;;;6.31;100.00;100102.14;106293;1285;64915;-77
2022/10/28 00:23:49;;;;;;;103.30;73.50;;;;;;;6.27;100.00;100102.98;106300;1293;58912;-76
2022/10/28 00:26:19;;;;;;;121.70;76.80;;;;;;;6.26;100.00;100103.01;106225;1288;58911;-77
2022/10/28 00:28:49;;;;;;;149.20;78.50;;;;;;;6.24;100.00;100101.48;106023;1287;66540;-76
2022/10/28 00:31:18;;;;;;;136.20;85.30;;;;;;;6.23;100.00;100099.91;106296;1286;60958;-76
2022/10/28 00:33:45;;;;;;;154.70;91.80;;;;;;;6.24;100.00;100100.79;106241;1285;65035;-77
2022/10/28 00:36:24;;;;;;;150.70;91.10;;;;;;;6.26;100.00;100092.41;106290;1285;59003;-76
2022/10/28 00:38:53;;;;;;;133.90;93.20;;;;;;;6.28;100.00;100094.64;106291;1278;58841;-77
2022/10/28 00:41:24;;;;;;;138.30;91.90;;;;;;;6.30;100.00;100094.58;106203;1281;67187;-77
2022/10/28 00:43:53;;;;;;;150.30;92.90;;;;;;;6.32;100.00;100090.98;106284;1286;61086;-77
2022/10/28 00:46:41;;;;;;;141.40;94.10;;;;;;;6.31;100.00;100090.84;106274;1285;65136;-77
2022/10/28 00:49:16;;;;;;;168.60;92.50;;;;;;;6.30;100.00;100085.77;106264;1278;58925;-76
2022/10/28 00:51:45;;;;;;;227.60;98.40;;;;;;;6.30;100.00;100079.91;106304;1284;58903;-77
2022/10/28 00:54:12;;;;;;;222.30;97.00;;;;;;;6.32;100.00;100078.98;106065;1289;66966;-76
2022/10/28 00:56:44;;;;;;;171.80;100.80;;;;;;;6.34;100.00;100071.85;106311;1285;61012;-77
2022/10/28 00:59:17;;;;;;;172.90;96.60;;;;;;;6.35;100.00;100067.59;106300;1285;64149;-77
2022/10/28 01:01:44;;;;;;;246.40;110.30;;;;;;;6.32;100.00;100062.73;106273;1278;58925;-76
2022/10/28 01:04:12;;;;;;;183.90;98.10;;;;;;;6.30;100.00;100060.00;106277;1285;59257;-77
2022/10/28 01:06:40;;;;;;;144.40;94.60;;;;;;;6.27;100.00;100062.05;106066;1281;67028;-77
2022/10/28 01:09:07;;;;;;;209.30;98.00;;;;;;;6.24;100.00;100054.91;106323;1285;60970;-77
2022/10/28 01:11:52;;;;;;;215.30;95.30;;;;;;;6.24;100.00;100053.83;106327;1285;65021;-77
2022/10/28 01:14:30;;;;;;;158.60;95.50;;;;;;;6.24;100.00;100050.65;106323;1278;58921;-77
2022/10/28 01:17:43;;;;;;;146.40;91.40;;;;;;;6.21;100.00;100050.39;106336;1285;59518;-77
2022/10/28 01:20:18;;;;;;;193.80;92.80;;;;;;;6.16;100.00;100045.08;105743;1292;67337;-77
2022/10/28 01:23:09;;;;;;;185.90;91.10;;;;;;;6.17;100.00;100045.07;105732;1293;60132;-77
2022/10/28 01:25:54;;;;;;;169.00;89.00;;;;;;;6.15;100.00;100041.95;105743;1294;64045;-77
2022/10/28 01:28:42;;;;;;;168.80;88.50;;;;;;;6.13;100.00;100039.70;105736;1294;58974;-77
2022/10/28 01:31:29;;;;;;;141.90;82.80;;;;;;;6.11;100.00;100038.55;105759;1289;58979;-77
2022/10/28 01:34:20;;;;;;;126.00;84.50;;;;;;;6.08;100.00;100035.64;105741;1292;66071;-77
2022/10/28 01:37:05;;;;;;;112.20;83.30;;;;;;;6.04;100.00;100034.34;105756;1292;61124;-77
2022/10/28 01:40:25;;;;;;;116.40;84.60;;;;;;;6.00;100.00;100033.24;105726;1286;64050;-77
2022/10/28 01:42:54;;;;;;;;;;;;;;;5.95;100.00;100034.98;105280;1298;58953;-76
2022/10/28 01:45:29;;;;;;;117.40;83.20;;;;;;;5.91;100.00;100029.80;105293;1292;58922;-76
2022/10/28 01:48:01;;;;;;;109.90;81.90;;;;;;;5.90;100.00;100031.41;105232;1300;67144;-76
2022/10/28 01:50:36;;;;;;;108.40;79.30;;;;;;;5.92;100.00;100029.94;105288;1300;59927;-76
2022/10/28 01:53:08;;;;;;;98.70;78.30;;;;;;;5.92;100.00;100027.45;105034;1283;71971;-76
2022/10/28 01:55:41;;;;;;;94.30;74.00;;;;;;;5.91;100.00;100029.44;105277;1300;58933;-77
2022/10/28 01:58:11;;;;;;;89.70;72.90;;;;;;;5.89;100.00;100025.96;105495;1301;58898;-76
2022/10/28 02:00:39;;;;;;;87.40;72.10;;;;;;;5.88;100.00;100026.35;105818;1284;66830;-76
2022/10/28 02:03:08;;;;;;;88.90;72.70;;;;;;;5.87;100.00;100024.44;105828;1291;61280;-77
2022/10/28 02:05:39;;;;;;;94.40;75.50;;;;;;;5.88;100.00;100020.01;105787;1291;72562;-77
2022/10/28 02:08:47;;;;;;;98.50;73.50;;;;;;;5.89;100.00;100011.67;105790;1291;59057;-76
2022/10/28 02:11:21;;;;;;;90.20;69.90;;;;;;;5.88;100.00;100003.78;105355;1300;59267;-77
2022/10/28 02:14:12;;;;;;;107.80;71.40;;;;;;;5.84;100.00;100002.12;105533;1291;67063;-77
2022/10/28 02:16:50;;;;;;;108.10;74.20;;;;;;;5.83;100.00;100002.52;105816;1291;61036;-76
2022/10/28 02:19:46;;;;;;;96.10;71.80;;;;;;;5.84;100.00;100002.13;105818;1291;62582;-77
2022/10/28 02:22:29;;;;;;;97.20;71.70;;;;;;;5.87;100.00;100003.29;105814;1292;59818;-77
2022/10/28 02:25:18;;;;;;;92.30;72.60;;;;;;;5.89;100.00;100006.41;105821;1291;58873;-77
2022/10/28 02:27:58;;;;;;;92.40;73.10;;;;;;;5.87;100.00;100006.30;105816;1291;67274;-76
2022/10/28 02:30:32;;;;;;;93.40;73.70;;;;;;;5.85;100.00;100007.40;105624;1295;61029;-77
2022/10/28 02:33:02;;;;;;;86.50;70.90;;;;;;;5.83;100.00;100002.54;105784;1291;65013;-76
2022/10/28 02:35:34;;;;;;;;;;;;;;;5.82;100.00;99998.15;105629;1294;59007;-76
2022/10/28 02:38:08;;;;;;;78.90;63.80;;;;;;;5.78;100.00;99995.63;105834;1285;59128;-77
2022/10/28 02:40:37;;;;;;;75.80;63.80;;;;;;;5.73;100.00;99990.84;105791;1291;67021;-77
2022/10/28 02:43:08;;;;;;;74.90;64.10;;;;;;;5.68;100.00;99987.81;105823;1291;60982;-77
2022/10/28 02:45:42;;;;;;;73.00;63.20;;;;;;;5.63;100.00;99987.63;105799;1291;64993;-77
2022/10/28 02:48:52;;;;;;;78.10;62.30;;;;;;;5.57;100.00;99990.11;106002;1285;58927;-76
2022/10/28 02:51:23;;;;;;;109.10;60.70;;;;;;;5.49;100.00;99991.59;105628;1294;58978;-76
2022/10/28 02:54:05;;;;;;;76.50;60.60;;;;;;;5.45;100.00;99994.69;105647;1294;65835;-76
2022/10/28 02:56:36;;;;;;;80.20;65.40;;;;;;;5.46;100.00;99997.30;105650;1294;59782;-76
2022/10/28 02:59:08;;;;;;;75.70;65.50;;;;;;;5.46;100.00;100000.48;105631;1294;64062;-76
2022/10/28 03:01:35;;;;;;;76.80;64.70;;;;;;;5.47;100.00;99995.52;105637;1294;59551;-76
2022/10/28 03:04:02;;;;;;;78.90;65.10;;;;;;;5.48;100.00;99990.91;105670;1294;58905;-76
2022/10/28 03:06:28;;;;;;;74.80;65.20;;;;;;;5.49;100.00;99988.94;105656;1294;67043;-76
2022/10/28 03:08:55;;;;;;;76.50;65.20;;;;;;;5.49;100.00;99988.92;105642;1294;61085;-76
2022/10/28 03:11:22;;;;;;;79.20;64.60;;;;;;;5.49;100.00;99990.67;105621;1294;65031;-76
2022/10/28 03:13:49;;;;;;;77.40;64.80;;;;;;;5.49;100.00;99991.06;105616;1294;59046;-76
2022/10/28 03:16:15;;;;;;;74.10;64.10;;;;;;;5.46;100.00;99993.41;105637;1294;59003;-76
2022/10/28 03:18:42;;;;;;;75.10;64.90;;;;;;;5.43;100.00;99993.70;105643;1294;67001;-76
2022/10/28 03:21:08;;;;;;;76.20;66.20;;;;;;;5.40;100.00;99987.96;105636;1294;60738;-76
2022/10/28 03:23:35;;;;;;;80.10;65.10;;;;;;;5.39;100.00;99984.83;105652;1294;64299;-76
2022/10/28 03:26:02;;;;;;;73.40;62.00;;;;;;;5.37;100.00;99982.95;105637;1294;59082;-77
2022/10/28 03:28:28;;;;;;;82.20;64.00;;;;;;;5.36;100.00;99978.20;105876;1288;58812;-76
2022/10/28 03:30:55;;;;;;;94.80;66.20;;;;;;;5.36;100.00;99975.56;106328;1286;66003;-77
2022/10/28 03:33:21;;;;;;;98.00;66.90;;;;;;;5.36;100.00;99976.98;106345;1282;59897;-76
2022/10/28 03:35:48;;;;;;;102.70;72.90;;;;;;;5.37;100.00;99973.44;106333;1286;63967;-76
2022/10/28 03:38:15;;;;;;;139.70;72.70;;;;;;;5.38;100.00;99974.63;106314;1278;58944;-76
2022/10/28 03:40:41;;;;;;;172.80;76.80;;;;;;;5.39;100.00;99973.90;106334;1278;59170;-76
2022/10/28 03:43:08;;;;;;;161.40;76.60;;;;;;;5.41;100.00;99975.42;106099;1288;66132;-76
2022/10/28 03:45:34;;;;;;;155.20;78.10;;;;;;;5.43;100.00;99974.30;106332;1285;60964;-76
2022/10/28 03:48:01;;;;;;;142.70;71.70;;;;;;;5.46;100.00;99972.65;106301;1285;64824;-77
2022/10/28 03:50:27;;;;;;;158.10;75.00;;;;;;;5.46;100.00;99971.56;106336;1285;58990;-76
2022/10/28 03:52:54;;;;;;;143.60;79.40;;;;;;;5.44;100.00;99970.74;106335;1278;58840;-77
2022/10/28 03:55:22;;;;;;;120.80;82.70;;;;;;;5.41;100.00;99968.02;106320;1278;65701;-77
2022/10/28 03:57:49;;;;;;;128.10;78.50;;;;;;;5.39;100.00;99965.63;106360;1278;61228;-77
2022/10/28 04:00:15;;;;;;;120.50;73.90;;;;;;;5.37;100.00;99969.91;106314;1285;64999;-77
2022/10/28 04:02:47;;;;;;;152.00;83.00;;;;;;;5.36;100.00;99972.95;106326;1284;59252;-77
2022/10/28 04:05:14;;;;;;;133.20;79.00;;;;;;;5.35;100.00;99975.63;106350;1285;59078;-78
2022/10/28 04:07:41;;;;;;;123.40;75.40;;;;;;;5.33;100.00;99975.50;106082;1288;66997;-77
2022/10/28 04:10:09;;;;;;;125.00;78.10;;;;;;;5.29;100.00;99964.68;106336;1286;61052;-77
2022/10/28 04:12:35;;;;;;;132.20;77.20;;;;;;;5.27;100.00;99960.35;106070;1287;63518;-77
2022/10/28 04:15:03;;;;;;;125.50;73.10;;;;;;;5.22;100.00;99960.13;106351;1285;58882;-77
2022/10/28 04:17:29;;;;;;;122.40;74.60;;;;;;;5.16;100.00;99959.77;106333;1286;58984;-77
2022/10/28 04:19:56;;;;;;;117.90;75.70;;;;;;;5.12;100.00;99960.42;106323;1286;67067;-77
2022/10/28 04:22:23;;;;;;;99.50;70.90;;;;;;;5.12;100.00;99955.34;105979;1284;138157;-77
2022/10/28 04:24:51;;;;;;;105.00;68.50;;;;;;;5.09;100.00;99947.48;106311;1278;64931;-77
2022/10/28 04:27:18;;;;;;;95.50;69.40;;;;;;;5.03;100.00;99949.23;106333;1279;59330;-77
2022/10/28 04:29:45;;;;;;;100.80;72.10;;;;;;;4.98;100.00;99950.43;106361;1285;58850;-76
2022/10/28 04:32:11;;;;;;;94.80;67.60;;;;;;;4.94;100.00;99946.31;106335;1282;66845;-76
2022/10/28 04:34:38;;;;;;;90.80;64.60;;;;;;;4.92;100.00;99947.44;106359;1286;60764;-76
2022/10/28 04:37:05;;;;;;;86.70;66.60;;;;;;;4.88;100.00;99948.98;106075;1286;65030;-76
2022/10/28 04:39:31;;;;;;;80.90;66.10;;;;;;;4.87;100.00;99951.82;106338;1278;59030;-77
2022/10/28 04:41:58;;;;;;;87.10;69.80;;;;;;;4.86;100.00;99951.14;106361;1285;58748;-77
2022/10/28 04:44:24;;;;;;;80.20;65.10;;;;;;;4.87;100.00;99944.43;106081;1288;66000;-77
2022/10/28 04:46:51;;;;;;;94.80;73.70;;;;;;;4.89;100.00;99950.88;106333;1278;60797;-77
2022/10/28 04:49:18;;;;;;;109.50;77.30;;;;;;;4.90;100.00;99962.29;106348;1282;64086;-77
2022/10/28 04:51:44;;;;;;;97.70;72.80;;;;;;;4.88;100.00;99965.69;106318;1284;59061;-77
2022/10/28 04:54:11;;;;;;;106.20;74.00;;;;;;;4.86;100.00;99960.66;106342;1285;58958;-77
2022/10/28 04:56:37;;;;;;;91.90;70.90;;;;;;;4.87;100.00;99954.65;106328;1285;66729;-77
2022/10/28 04:59:04;;;;;;;101.10;69.50;;;;;;;4.89;100.00;99951.57;106319;1284;59952;-76
2022/10/28 05:01:31;;;;;;;87.20;68.10;;;;;;;4.91;100.00;99943.96;106314;1293;64797;-77
2022/10/28 05:03:57;;;;;;;87.60;67.50;;;;;;;4.92;100.00;99942.85;106331;1278;58955;-76
2022/10/28 05:06:24;;;;;;;77.60;64.80;;;;;;;4.90;100.00;99943.61;106354;1284;58962;-76
2022/10/28 05:08:51;;;;;;;80.90;65.30;;;;;;;4.87;100.00;99941.60;106055;1281;65494;-76
2022/10/28 05:11:17;;;;;;;77.10;63.20;;;;;;;4.85;100.00;99946.94;106370;1286;60967;-76
2022/10/28 05:13:44;;;;;;;78.60;63.30;;;;;;;4.82;100.00;99953.71;106324;1292;65125;-76
2022/10/28 05:16:10;;;;;;;78.70;62.80;;;;;;;4.79;100.00;99952.38;106076;1289;58963;-77
2022/10/28 05:18:37;;;;;;;78.10;62.10;;;;;;;4.78;100.00;99952.77;106332;1291;58819;-77
2022/10/28 05:21:04;;;;;;;88.70;61.20;;;;;;;4.74;100.00;99955.16;106072;1291;67043;-76
2022/10/28 05:23:30;;;;;;;94.00;60.50;;;;;;;4.71;100.00;99960.88;106025;1286;60728;-77
2022/10/28 05:25:57;;;;;;;76.40;60.00;;;;;;;4.69;100.00;99960.41;106322;1286;64740;-77
2022/10/28 05:28:23;;;;;;;80.20;62.30;;;;;;;4.69;100.00;99964.13;106318;1285;58923;-77
2022/10/28 05:30:50;;;;;;;83.70;62.00;;;;;;;4.69;100.00;99955.15;106348;1282;58863;-76
2022/10/28 05:33:17;;;;;;;75.20;60.20;;;;;;;4.69;100.00;99944.56;106070;1285;67020;-77
2022/10/28 05:35:43;;;;;;;82.00;60.70;;;;;;;4.69;100.00;99939.98;106353;1284;60796;-76
2022/10/28 05:38:10;;;;;;;83.00;64.00;;;;;;;4.67;100.00;99943.74;106308;1285;64029;-76
2022/10/28 05:40:36;;;;;;;81.90;65.80;;;;;;;4.66;100.00;99943.98;106343;1285;58904;-76
2022/10/28 05:43:03;;;;;;;78.40;61.60;;;;;;;4.69;100.00;99951.46;106340;1285;58831;-76
2022/10/28 05:45:30;;;;;;;78.30;62.50;;;;;;;4.71;100.00;99949.62;106313;1285;66023;-77
2022/10/28 05:47:57;;;;;;;79.20;59.20;;;;;;;4.72;100.00;99950.83;106340;1284;59155;-77
2022/10/28 05:50:24;;;;;;;89.40;59.50;;;;;;;4.70;100.00;99956.54;105999;1294;65040;-76
2022/10/28 05:52:56;;;;;;;78.80;61.80;;;;;;;4.69;100.00;99952.86;106300;1282;58960;-77
2022/10/28 05:55:27;;;;;;;76.70;59.20;;;;;;;4.71;100.00;99945.39;106104;1288;58826;-76
2022/10/28 05:57:54;;;;;;;73.40;60.40;;;;;;;4.76;100.00;99946.31;106294;1276;67030;-77
2022/10/28 06:00:23;;;;;;;68.50;56.90;;;;;;;4.83;100.00;99955.27;106324;1278;60641;-77
2022/10/28 06:02:50;;;;;;;74.90;63.80;;;;;;;4.89;100.00;99954.21;106227;1287;64987;-76
2022/10/28 06:05:17;;;;;;;76.70;63.20;;;;;;;4.97;100.00;99956.09;106324;1278;58889;-76
2022/10/28 06:07:43;;;;;;;72.60;62.00;;;;;;;5.06;100.00;99961.66;106342;1286;58935;-77
2022/10/28 06:10:11;;;;;;;71.10;59.80;;;;;;;5.15;100.00;99955.41;106324;1286;67066;-76
2022/10/28 06:12:41;;;;;;;72.70;59.10;;;;;;;5.25;100.00;99952.64;106335;1284;60318;-78
2022/10/28 06:15:08;;;;;;;70.70;61.70;;;;;;;5.34;100.00;99957.50;106094;1288;62735;-76
2022/10/28 06:17:34;;;;;;;72.20;61.10;;;;;;;5.42;100.00;99957.94;106334;1284;58898;-75
2022/10/28 06:20:02;;;;;;;68.40;58.80;;;;;;;5.53;100.00;99960.98;106333;1286;58912;-76
2022/10/28 06:22:29;;;;;;;69.80;59.50;;;;;;;5.59;100.00;99958.50;106079;1274;67088;-76
2022/10/28 06:24:55;;;;;;;78.00;64.40;;;;;;;5.64;100.00;99957.27;106356;1284;61097;-76
2022/10/28 06:27:22;;;;;;;72.80;60.50;;;;;;;5.71;100.00;99953.17;106323;1287;65135;-76
2022/10/28 06:29:48;;;;;;;68.20;59.80;;;;;;;5.82;100.00;99946.83;106350;1293;59041;-76
2022/10/28 06:32:15;;;;;;;69.90;59.60;;;;;;;5.93;100.00;99950.02;106351;1286;58949;-75
2022/10/28 06:34:41;;;;;;;71.50;62.50;;;;;;;6.00;100.00;99957.41;106324;1285;66986;-75
2022/10/28 06:37:09;;;;;;;68.10;60.40;;;;;;;6.07;100.00;99950.81;106325;1279;60987;-76
2022/10/28 06:39:37;;;;;;;66.00;58.70;;;;;;;6.18;100.00;99948.52;106302;1285;65004;-77
2022/10/28 06:42:06;;;;;;;;;;;;;;;6.27;100.00;99954.20;106354;1286;58909;-75
2022/10/28 06:44:32;;;;;;;64.10;54.10;;;;;;;6.32;100.00;99964.27;106357;1286;58856;-76
2022/10/28 06:46:59;;;;;;;64.80;55.90;;;;;;;6.34;100.00;99961.36;106333;1285;67030;-77
2022/10/28 06:49:27;;;;;;;60.50;52.60;;;;;;;6.40;100.00;99961.54;106011;1284;59843;-76
2022/10/28 06:51:53;;;;;;;61.60;51.40;;;;;;;6.45;100.00;99963.65;106333;1284;64039;-76
2022/10/28 06:54:20;;;;;;;58.80;50.90;;;;;;;6.50;100.00;99962.05;106350;1286;58817;-76
2022/10/28 06:56:46;;;;;;;58.00;49.30;;;;;;;6.53;100.00;99963.70;106353;1285;59067;-77
2022/10/28 06:59:13;;;;;;;58.00;51.60;;;;;;;6.59;100.00;99964.04;106356;1286;67066;-77
2022/10/28 07:01:41;;;;;;;57.80;51.30;;;;;;;6.65;100.00;99965.95;106372;1286;60048;-77
2022/10/28 07:04:12;;;;;;;;;;;;;;;6.72;100.00;99965.18;106365;1286;62628;-77
2022/10/28 07:06:39;;;;;;;54.30;47.40;;;;;;;6.76;100.00;99963.27;106331;1284;59015;-77
2022/10/28 07:09:06;;;;;;;59.60;50.70;;;;;;;6.81;100.00;99963.63;106330;1284;59153;-76
2022/10/28 07:11:34;;;;;;;64.30;53.50;;;;;;;6.89;100.00;99960.86;106359;1292;66815;-76
2022/10/28 07:14:01;;;;;;;64.80;57.30;;;;;;;6.96;100.00;99962.88;106355;1278;60965;-76
2022/10/28 07:16:28;;;;;;;76.80;64.10;;;;;;;7.06;100.00;99959.67;106305;1292;65022;-77
2022/10/28 07:18:55;;;;;;;69.60;61.00;;;;;;;7.17;100.00;99960.54;106347;1286;59207;-77
2022/10/28 07:21:27;;;;;;;75.80;65.90;;;;;;;7.27;100.00;99964.05;106345;1277;58906;-76
2022/10/28 07:23:57;;;;;;;76.60;65.00;;;;;;;7.39;100.00;99970.99;106348;1285;67178;-77
2022/10/28 07:26:24;;;;;;;79.60;65.40;;;;;;;7.51;100.00;99971.09;106118;1285;61068;-77
2022/10/28 07:28:51;;;;;;;81.00;68.90;;;;;;;7.61;100.00;99975.65;106329;1285;64066;-77
2022/10/28 07:31:18;;;;;;;76.70;66.50;;;;;;;7.71;100.00;99975.08;106084;1288;59841;-77
2022/10/28 07:33:50;;;;;;;85.30;67.60;;;;;;;7.82;100.00;99981.88;106335;1293;58985;-76
2022/10/28 07:36:17;;;;;;;77.80;67.20;;;;;;;7.93;100.00;99978.98;106331;1284;66019;-76
2022/10/28 07:38:47;;;;;;;72.80;62.30;;;;;;;8.04;100.00;99975.89;106360;1285;61024;-76
2022/10/28 07:41:13;;;;;;;75.80;65.40;;;;;;;8.18;100.00;99978.48;106324;1285;64016;-76
2022/10/28 07:43:40;;;;;;;81.00;69.10;;;;;;;8.32;100.00;99977.00;106346;1282;58927;-76
2022/10/28 07:46:07;;;;;;;81.30;70.90;;;;;;;8.47;100.00;99970.94;106333;1285;58822;-76
2022/10/28 07:48:35;;;;;;;65.10;57.50;;;;;;;8.61;100.00;99972.79;106338;1286;66041;-76
2022/10/28 07:51:06;;;;;;;56.40;50.30;;;;;;;8.77;100.00;99970.34;106336;1285;59997;-77
2022/10/28 07:53:35;;;;;;;49.30;43.40;;;;;;;8.92;100.00;99967.54;106352;1284;62460;-75
2022/10/28 07:56:05;;;;;;;47.80;42.80;;;;;;;9.06;100.00;99968.36;106319;1285;58882;-76
2022/10/28 07:58:32;;;;;;;46.00;41.00;;;;;;;9.19;100.00;99963.15;106338;1278;58804;-76
2022/10/28 08:01:04;;;;;;;52.20;44.80;;;;;;;9.33;100.00;99960.21;106357;1285;66125;-78
2022/10/28 08:03:31;;;;;;;48.60;43.00;;;;;;;9.48;100.00;99957.39;106041;1284;59968;-77
2022/10/28 08:06:00;;;;;;;48.80;43.70;;;;;;;9.61;100.00;99954.08;106313;1284;63900;-78
2022/10/28 08:08:27;;;;;;;48.50;42.70;;;;;;;9.76;100.00;99953.21;106319;1282;58978;-77
2022/10/28 08:10:54;;;;;;;49.20;42.70;;;;;;;9.90;100.00;99948.08;106023;1286;59096;-77
2022/10/28 08:13:21;;;;;;;45.70;40.60;;;;;;;10.02;100.00;99947.48;106348;1291;67027;-76
2022/10/28 08:15:54;;;;;;;41.30;36.90;;;;;;;10.14;100.00;99944.62;106326;1286;61226;-77
2022/10/28 08:18:21;;;;;;;37.70;33.90;;;;;;;10.24;100.00;99948.02;106337;1291;65003;-76
2022/10/28 08:20:48;;;;;;;39.30;34.40;;;;;;;10.33;100.00;99945.30;106301;1286;58909;-77
2022/10/28 08:23:14;;;;;;;40.70;35.70;;;;;;;10.41;100.00;99945.58;106349;1284;58757;-76
2022/10/28 08:25:48;;;;;;;40.60;35.50;;;;;;;10.50;100.00;99947.04;106351;1284;65967;-76
2022/10/28 08:28:15;;;;;;;38.20;33.20;;;;;;;10.63;100.00;99946.75;106342;1285;58994;-76
2022/10/28 08:30:43;;;;;;;38.90;34.80;;;;;;;10.77;100.00;99949.40;106317;1285;65027;-77
2022/10/28 08:33:10;;;;;;;38.50;33.80;;;;;;;10.90;100.00;99946.75;106110;1282;58869;-77
2022/10/28 08:35:36;;;;;;;39.20;34.20;;;;;;;11.01;100.00;99945.63;106339;1285;58967;-77
2022/10/28 08:38:04;;;;;;;40.60;34.60;;;;;;;11.10;100.00;99940.34;106338;1291;66977;-76
2022/10/28 08:40:58;;;;;;;40.10;35.80;;;;;;;11.22;100.00;99937.77;106337;1284;60117;-76
2022/10/28 08:43:34;;;;;;;36.50;32.40;;;;;;;11.35;100.00;99934.20;105815;1292;64165;-76
2022/10/28 08:46:15;;;;;;;36.60;32.30;;;;;;;11.47;100.00;99932.66;105814;1291;59325;-76
2022/10/28 08:48:42;;;;;;;37.60;33.40;;;;;;;11.59;100.00;99930.37;105821;1293;59062;-76
2022/10/28 08:51:15;;;;;;;37.10;32.60;;;;;;;11.71;100.00;99927.23;105817;1292;67256;-78
2022/10/28 08:54:03;;;;;;;35.50;31.60;;;;;;;11.84;100.00;99926.46;105812;1298;60998;-77
2022/10/28 08:56:36;;;;;;;35.20;31.20;;;;;;;12.00;100.00;99927.88;105613;1288;73553;-77
2022/10/28 08:59:08;;;;;;;32.30;28.90;;;;;;;12.12;100.00;99921.88;105812;1291;59347;-78
2022/10/28 09:01:49;;;;;;;33.50;30.00;;;;;;;12.23;100.00;99919.23;105622;1293;59031;-77
2022/10/28 09:04:37;;;;;;;43.30;29.80;;;;;;;12.38;100.00;99908.23;105809;1291;74821;-77
2022/10/28 09:07:09;;;;;;;30.80;27.30;;;;;;;12.52;100.00;99909.36;105828;1290;60738;-77
2022/10/28 09:09:37;;;;;;;30.00;26.80;;;;;;;12.62;100.00;99909.27;105604;1302;65322;-78
2022/10/28 09:12:42;;;;;;;31.70;28.30;;;;;;;12.72;100.00;99909.70;105804;1298;58841;-77
2022/10/28 09:15:11;;;;;;;28.10;25.10;;;;;;;12.85;100.00;99907.33;105808;1290;58967;-77
2022/10/28 09:17:52;;;;;;;31.80;27.40;;;;;;;12.98;100.00;99907.71;105824;1291;66037;-77
2022/10/28 09:20:20;;;;;;;34.00;28.40;;;;;;;13.14;100.00;99907.64;105910;1292;60747;-77
2022/10/28 09:23:15;;;;;;;31.90;28.60;;;;;;;13.29;100.00;99905.85;106070;1289;64032;-77
2022/10/28 09:25:57;;;;;;;32.60;28.90;;;;;;;13.42;100.00;99906.45;106306;1285;59241;-77
2022/10/28 09:28:33;;;;;;;28.70;25.80;;;;;;;13.53;100.00;99903.04;106303;1288;58986;-77
2022/10/28 09:31:05;;;;;;;28.70;25.60;;;;;;;13.64;100.00;99898.62;106296;1284;67068;-78
2022/10/28 09:33:57;;;;;;;27.70;24.90;;;;;;;13.75;100.00;99900.36;106294;1287;60003;-77
2022/10/28 09:36:32;;;;;;;28.50;25.50;;;;;;;13.86;100.00;99900.53;106304;1288;64026;-77
2022/10/28 09:39:00;;;;;;;27.70;24.70;;;;;;;13.96;100.00;99899.15;106283;1286;58953;-77
2022/10/28 09:41:35;;;;;;;30.50;25.60;;;;;;;14.05;100.00;99905.68;106333;1290;58720;-77
2022/10/28 09:44:23;;;;;;;29.00;26.00;;;;;;;14.11;100.00;99902.78;105785;1283;67114;-77
2022/10/28 09:46:55;;;;;;;30.30;24.50;;;;;;;14.17;100.00;99900.10;106336;1285;60986;-76
2022/10/28 09:49:27;;;;;;;25.80;23.10;;;;;;;14.26;100.00;99902.30;106299;1285;65012;-76
2022/10/28 09:52:20;;;;;;;27.90;25.10;;;;;;;14.34;100.00;99899.98;106299;1284;59030;-77
2022/10/28 09:54:52;;;;;;;26.20;23.50;;;;;;;14.43;100.00;99893.83;106300;1286;58951;-77
2022/10/28 09:57:28;;;;;;;26.00;22.00;;;;;;;14.54;100.00;99890.11;106297;1285;66790;-77
2022/10/28 09:59:55;;;;;;;25.40;22.70;;;;;;;14.66;100.00;99889.04;106319;1285;60974;-78
2022/10/28 10:02:31;;;;;;;24.00;21.60;;;;;;;14.79;100.00;99887.95;106302;1284;65005;-77
2022/10/28 10:05:00;;;;;;;22.30;20.10;;;;;;;14.95;100.00;99885.61;106293;1278;59049;-80
2022/10/28 10:07:36;;;;;;;20.70;18.50;;;;;;;15.14;100.00;99885.30;106240;1285;58888;-78
2022/10/28 10:10:13;;;;;;;20.20;18.00;;;;;;;15.31;100.00;99885.19;106091;1288;65958;-78
2022/10/28 10:12:39;;;;;;;17.30;15.00;;;;;;;15.46;100.00;99880.54;106325;1285;59955;-78
2022/10/28 10:15:14;;;;;;;13.70;12.30;;;;;;;15.61;100.00;99881.76;106326;1278;64037;-77
2022/10/28 10:17:44;;;;;;;13.90;12.10;;;;;;;15.71;100.00;99881.55;106263;1285;59259;-78
2022/10/28 10:20:13;;;;;;;12.40;11.20;;;;;;;15.83;100.00;99880.69;106295;1284;58822;-77
2022/10/28 10:22:42;;;;;;;12.70;11.40;;;;;;;15.92;100.00;99884.82;106300;1286;67142;-77
2022/10/28 10:25:19;;;;;;;12.50;11.20;;;;;;;16.03;100.00;99885.86;106229;1287;59852;-76
2022/10/28 10:27:54;;;;;;;13.40;12.10;;;;;;;16.15;100.00;99887.04;106285;1285;64031;-76
2022/10/28 10:30:35;;;;;;;16.10;12.50;;;;;;;16.28;100.00;99885.95;105924;1290;58955;-77
2022/10/28 10:33:02;;;;;;;15.50;13.90;;;;;;;16.38;100.00;99880.08;106310;1286;58817;-77
2022/10/28 10:35:31;;;;;;;15.50;12.60;;;;;;;16.46;100.00;99876.64;106295;1292;67239;-77
2022/10/28 10:38:01;;;;;;;13.90;12.60;;;;;;;16.56;100.00;99876.25;106294;1285;60050;-78
2022/10/28 10:40:32;;;;;;;;;;;;;;;16.71;100.00;99878.30;106108;1287;64019;-77
2022/10/28 10:43:17;;;;;;;12.10;10.90;;;;;;;16.82;100.00;99873.45;106299;1285;58874;-76
2022/10/28 10:46:03;;;;;;;12.40;11.20;;;;;;;16.89;100.00;99874.90;106299;1286;58965;-77
2022/10/28 10:48:34;;;;;;;13.90;12.60;;;;;;;16.87;100.00;99873.45;106298;1282;73966;-78
2022/10/28 10:51:19;;;;;;;14.80;12.10;;;;;;;16.91;100.00;99875.13;106313;1287;60056;-77
2022/10/28 10:53:48;;;;;;;14.00;11.80;;;;;;;16.99;100.00;99873.98;106296;1292;64786;-77
2022/10/28 10:56:24;;;;;;;12.90;11.70;;;;;;;17.03;100.00;99873.23;106286;1288;58865;-77
2022/10/28 10:58:53;;;;;;;12.00;10.80;;;;;;;17.09;100.00;99873.64;105964;1297;59044;-77
2022/10/28 11:01:24;;;;;;;13.10;11.50;;;;;;;17.15;100.00;99871.39;106302;1284;67115;-77
2022/10/28 11:04:00;;;;;;;13.10;11.80;;;;;;;17.22;100.00;99870.08;106327;1285;59903;-77
2022/10/28 11:06:39;;;;;;;11.70;10.60;;;;;;;17.28;100.00;99870.93;106286;1286;65003;-77
2022/10/28 11:09:15;;;;;;;12.40;11.20;;;;;;;17.33;100.00;99874.30;106298;1284;58911;-77
2022/10/28 11:11:42;;;;;;;11.40;10.20;;;;;;;17.35;100.00;99874.45;106306;1277;59185;-77
2022/10/28 11:14:08;;;;;;;11.70;10.40;;;;;;;17.43;100.00;99870.80;106324;1285;66010;-77
2022/10/28 11:16:54;;;;;;;11.20;10.10;;;;;;;17.51;100.00;99867.27;106342;1285;59906;-77
2022/10/28 11:19:33;;;;;;;11.80;10.80;;;;;;;17.53;100.00;99868.84;106309;1285;64918;-77
2022/10/28 11:22:12;;;;;;;11.60;10.30;;;;;;;17.54;100.00;99858.73;106327;1285;58932;-77
2022/10/28 11:24:50;;;;;;;11.20;10.20;;;;;;;17.59;100.00;99859.05;106326;1286;58807;-77